Jackson, Mississippi
Current Conditions -  °F | °C
As of 10:53 PM on Saturday 20 Dec 2014 (Local Time) from KHKS Reporting Station
Clear Clear  
Wind Chill: 44°   Ceiling: Unl
Heat Index: 44°   Visibility: 10mi
Dew Point: 39°   Wind: 0mph
Humidity: 82%   Direction: NA
Pressure: 30.2"   Gusts: NA
Location:  32.3°N, 90.18°W
Report Text: KHKS 210453Z AUTO 00000KT 10SM CLR 07/04 A3020 RMK AO2 SLP223 T00670039
Loading
Personal Weather Stations






























Interactive Weather Map New forecast layout! Learn more

10-Day Weather Forecast

Advertisements
Track Severe Weather on mobile